메인 페이지
METAR-TAF:

METAR-TAF

공항 :

Monroe, 루이지애나, 미국

위도: 32-30-42N, 경도: 092-01-53W, 고도: 24m

현재 날씨관측

예보는 32분 전, 17:53시(UTC)에 발표되었습니다.
남남동4kt
온도 21°C
습도 43%
기압 1021 hPa
시정: 16.1km
맑음

METAR: KMLU 201753Z 16004KT 10SM CLR 21/08 A3014 RMK AO2 SLP205 T02060078 10211 20050 58009

시각: 12:25 (18:25 UTC)

예보

예보는 44분 전, 17:41시(UTC)에 발표되었습니다.
예보 대상 시간: 20일 18시부터 21일 18시까지 (UTC)
남남동6kt
시정: 10km
고도 12000ft 상공 구름 조금
고도 25000ft 상공 구름 보통
21일 1500시부터 (UTC)
9kt
시정: 10km
고도 2500ft 상공 구름 보통
고도 12000ft 상공 구름 많음
고도 25000ft 상공 흐림

TAF: KMLU 201741Z 2018/2118 16006KT P6SM FEW120 SCT250 FM211500 17009KT P6SM SCT025 BKN120 OVC250

4,000개 이상의 공항 관측 자료 및 예보 (METAR 및 TAF 보고).

지도상에서 검색 가능한 기상관측소가 노란 점과 빨간 점으로 표시되어 있습니다.

기상관측소 명을 보려면 표시 위로 마우스를 이동하세요.

날씨 관측과 예보를 보려면 클릭하세요.

지도 변경 : 확대하려면 엑스 표시가 있는 녹색 버튼, 축소하려면 빼기 표시가 있는 녹색 버튼, 다음 페이지의 지도를 보려면 녹색 화살표를 클릭하세요.


METAR-TAF: